Time;durP1;ratioP1;P1;durP2;ratioP2;P2;SDS_P1;SDS_P2;PMS_P1;PMS_P2;Temp;Humidity;BMP_temperature;BMP_pressure;BME280_temperature;BME280_humidity;BME280_pressure;Samples;Min_cycle;Max_cycle;Signal;HPM_P1;HPM_P2
2023/08/02 00:02:43;;;;;;;12.10;4.35;;;;;;;;;;8432517;28;20052;-90
2023/08/02 00:06:46;;;;;;;7.07;4.38;;;;;;;;;;8445815;28;20118;-89
2023/08/02 00:10:50;;;;;;;7.65;4.13;;;;;;;;;;8446117;28;20556;-88
2023/08/02 00:14:53;;;;;;;8.35;4.60;;;;;;;;;;8445783;28;20044;-89
2023/08/02 00:18:56;;;;;;;11.32;5.00;;;;;;;;;;8439251;28;20043;-90
2023/08/02 00:22:59;;;;;;;15.68;5.18;;;;;;;;;;8465474;28;20475;-89
2023/08/02 00:27:04;;;;;;;7.75;4.90;;;;;;;;;;8458102;28;20052;-88
2023/08/02 00:31:07;;;;;;;13.43;5.00;;;;;;;;;;8445374;28;20468;-89
2023/08/02 00:35:11;;;;;;;10.25;5.50;;;;;;;;;;8451734;28;20115;-88
2023/08/02 00:39:13;;;;;;;9.15;5.18;;;;;;;;;;8451076;28;20043;-88
2023/08/02 00:43:18;;;;;;;10.27;5.07;;;;;;;;;;8452585;28;20066;-87
2023/08/02 00:47:21;;;;;;;9.85;5.28;;;;;;;;;;8441402;28;20089;-89
2023/08/02 00:51:24;;;;;;;9.68;5.22;;;;;;;;;;8443904;28;20048;-88
2023/08/02 00:55:27;;;;;;;12.80;5.22;;;;;;;;;;8437752;28;20044;-91
2023/08/02 00:59:31;;;;;;;10.85;5.40;;;;;;;;;;8443843;28;20052;-91
2023/08/02 01:03:34;;;;;;;11.77;6.03;;;;;;;;;;8457652;28;20047;-92
2023/08/02 01:07:44;;;;;;;11.85;5.32;;;;;;;;;;8453798;28;20055;-88
2023/08/02 01:11:52;;;;;;;9.65;5.57;;;;;;;;;;8451533;28;20047;-91
2023/08/02 01:15:58;;;;;;;8.85;5.57;;;;;;;;;;8444798;28;20119;-91
2023/08/02 01:20:05;;;;;;;12.25;5.57;;;;;;;;;;8445989;28;20122;-91
2023/08/02 01:24:08;;;;;;;11.63;6.28;;;;;;;;;;8461231;28;20098;-91
2023/08/02 01:28:17;;;;;;;11.57;6.05;;;;;;;;;;8453338;28;20126;-92
2023/08/02 01:32:22;;;;;;;10.80;6.40;;;;;;;;;;8463792;28;20078;-88
2023/08/02 01:36:26;;;;;;;14.05;6.53;;;;;;;;;;8463060;28;20047;-91
2023/08/02 01:40:29;;;;;;;12.93;5.80;;;;;;;;;;8461198;28;20043;-91
2023/08/02 01:44:32;;;;;;;13.55;6.70;;;;;;;;;;8448977;28;20523;-88
2023/08/02 01:48:35;;;;;;;12.02;6.90;;;;;;;;;;8456793;28;20036;-89
2023/08/02 01:52:39;;;;;;;13.52;6.60;;;;;;;;;;8454951;28;20044;-88
2023/08/02 01:56:43;;;;;;;9.05;6.05;;;;;;;;;;8450766;28;20414;-88
2023/08/02 02:00:46;;;;;;;11.85;6.40;;;;;;;;;;8446083;28;20075;-88
2023/08/02 02:04:51;;;;;;;11.05;6.20;;;;;;;;;;8463851;28;20043;-88
2023/08/02 02:08:59;;;;;;;10.95;6.53;;;;;;;;;;8462280;28;20410;-90
2023/08/02 02:13:02;;;;;;;12.13;6.70;;;;;;;;;;8461796;28;20406;-92
2023/08/02 02:17:06;;;;;;;14.70;6.95;;;;;;;;;;8462024;28;20447;-90
2023/08/02 02:21:09;;;;;;;13.80;7.47;;;;;;;;;;8445722;28;20081;-91
2023/08/02 02:25:13;;;;;;;13.73;7.60;;;;;;;;;;8440542;28;20046;-91
2023/08/02 02:29:16;;;;;;;13.07;7.22;;;;;;;;;;8440726;28;20671;-90
2023/08/02 02:33:19;;;;;;;14.57;7.60;;;;;;;;;;8428899;28;20079;-88
2023/08/02 02:37:22;;;;;;;15.65;8.00;;;;;;;;;;8439711;28;20044;-88
2023/08/02 02:41:26;;;;;;;17.15;7.65;;;;;;;;;;8441885;28;20044;-88
2023/08/02 02:45:29;;;;;;;13.65;7.50;;;;;;;;;;8454278;28;20506;-88
2023/08/02 02:49:32;;;;;;;14.10;7.80;;;;;;;;;;8462602;28;20063;-88
2023/08/02 02:53:37;;;;;;;13.35;7.35;;;;;;;;;;8463135;28;20043;-90
2023/08/02 02:57:42;;;;;;;13.93;8.10;;;;;;;;;;8456787;28;20032;-90
2023/08/02 03:01:45;;;;;;;19.98;8.55;;;;;;;;;;8449012;28;20054;-88
2023/08/02 03:05:48;;;;;;;16.83;9.25;;;;;;;;;;8441305;28;20067;-88
2023/08/02 03:09:50;;;;;;;15.20;7.25;;;;;;;;;;8457349;28;20039;-90
2023/08/02 03:13:55;;;;;;;20.42;8.57;;;;;;;;;;8468257;28;20103;-87
2023/08/02 03:17:58;;;;;;;15.90;8.00;;;;;;;;;;8436588;28;20119;-88
2023/08/02 03:22:01;;;;;;;20.60;9.27;;;;;;;;;;8459059;28;20043;-88
2023/08/02 03:26:04;;;;;;;19.35;10.23;;;;;;;;;;8467767;28;20035;-89
2023/08/02 03:30:09;;;;;;;26.42;12.45;;;;;;;;;;8467742;28;20076;-90
2023/08/02 03:34:12;;;;;;;23.73;12.25;;;;;;;;;;8454122;28;20127;-88
2023/08/02 03:38:15;;;;;;;26.02;11.77;;;;;;;;;;8467595;28;20491;-88
2023/08/02 03:42:18;;;;;;;27.60;11.60;;;;;;;;;;8435552;28;20054;-90
2023/08/02 03:46:23;;;;;;;28.15;12.27;;;;;;;;;;8458970;28;20142;-89
2023/08/02 03:50:26;;;;;;;34.78;14.50;;;;;;;;;;8448645;28;20142;-93
2023/08/02 03:54:28;;;;;;;31.58;14.57;;;;;;;;;;8457969;28;20384;-89
2023/08/02 03:58:31;;;;;;;30.25;13.55;;;;;;;;;;8460950;28;20046;-89
2023/08/02 04:02:36;;;;;;;33.92;14.15;;;;;;;;;;8460233;28;20055;-91
2023/08/02 04:06:38;;;;;;;36.10;14.50;;;;;;;;;;8447825;28;20047;-87
2023/08/02 04:10:41;;;;;;;30.77;12.63;;;;;;;;;;8452651;28;20066;-88
2023/08/02 04:14:44;;;;;;;30.73;12.93;;;;;;;;;;8462090;28;20093;-91
2023/08/02 04:18:48;;;;;;;26.00;12.02;;;;;;;;;;8442203;28;20479;-89
2023/08/02 04:22:51;;;;;;;33.50;12.57;;;;;;;;;;8451440;28;20044;-88
2023/08/02 04:26:54;;;;;;;30.10;12.45;;;;;;;;;;8465298;28;20079;-87
2023/08/02 04:30:57;;;;;;;28.38;12.15;;;;;;;;;;8465133;28;20407;-87
2023/08/02 04:35:02;;;;;;;26.70;11.48;;;;;;;;;;8456501;28;20423;-87
2023/08/02 04:39:06;;;;;;;18.75;10.15;;;;;;;;;;8460229;28;20488;-89
2023/08/02 04:43:09;;;;;;;15.80;8.50;;;;;;;;;;8456354;28;20177;-87
2023/08/02 04:47:12;;;;;;;12.45;7.60;;;;;;;;;;8445515;28;20058;-87
2023/08/02 04:51:16;;;;;;;9.77;6.68;;;;;;;;;;8450864;28;20119;-87
2023/08/02 04:55:19;;;;;;;9.32;6.40;;;;;;;;;;8435276;28;20115;-89
2023/08/02 04:59:23;;;;;;;9.23;5.68;;;;;;;;;;8444107;28;20048;-88
2023/08/02 05:03:26;;;;;;;7.30;4.97;;;;;;;;;;8443890;28;20138;-87
2023/08/02 05:07:32;;;;;;;8.57;4.95;;;;;;;;;;8464362;28;20130;-88
2023/08/02 05:11:37;;;;;;;7.85;4.43;;;;;;;;;;8436064;28;20047;-88
2023/08/02 05:15:40;;;;;;;8.32;4.20;;;;;;;;;;8450437;28;20059;-89
2023/08/02 05:19:43;;;;;;;6.82;3.65;;;;;;;;;;8452140;28;20100;-91
2023/08/02 05:23:48;;;;;;;7.20;3.88;;;;;;;;;;8455586;28;20043;-90
2023/08/02 05:27:50;;;;;;;5.78;3.55;;;;;;;;;;8447174;28;20142;-92
2023/08/02 05:31:53;;;;;;;7.45;3.38;;;;;;;;;;8455560;28;20050;-90
2023/08/02 05:35:56;;;;;;;6.00;4.05;;;;;;;;;;8452085;28;20043;-90
2023/08/02 05:40:00;;;;;;;4.55;3.20;;;;;;;;;;8462949;28;20047;-89
2023/08/02 05:44:03;;;;;;;6.75;3.50;;;;;;;;;;8435608;28;20062;-89
2023/08/02 05:48:06;;;;;;;5.20;2.83;;;;;;;;;;8429613;28;20044;-89
2023/08/02 05:52:09;;;;;;;5.25;2.90;;;;;;;;;;8445168;28;20048;-89
2023/08/02 05:56:13;;;;;;;4.72;2.67;;;;;;;;;;8449795;28;20388;-91
2023/08/02 06:00:17;;;;;;;4.07;2.78;;;;;;;;;;8432807;28;20069;-89
2023/08/02 06:04:20;;;;;;;6.68;3.00;;;;;;;;;;8427437;28;20046;-89
2023/08/02 06:08:23;;;;;;;8.23;2.75;;;;;;;;;;8430956;28;20090;-90
2023/08/02 06:12:27;;;;;;;4.53;2.47;;;;;;;;;;8451439;28;20054;-92
2023/08/02 06:16:30;;;;;;;3.47;2.38;;;;;;;;;;8437986;28;20062;-93
2023/08/02 06:20:33;;;;;;;6.60;2.30;;;;;;;;;;8439757;28;20036;-89
2023/08/02 06:24:36;;;;;;;3.75;2.20;;;;;;;;;;8447836;28;20142;-89
2023/08/02 06:28:41;;;;;;;3.45;2.20;;;;;;;;;;8469205;28;20168;-90
2023/08/02 06:32:44;;;;;;;10.82;4.82;;;;;;;;;;8450002;28;20081;-88
2023/08/02 06:36:47;;;;;;;3.47;2.13;;;;;;;;;;8451974;28;20075;-89
2023/08/02 06:40:50;;;;;;;3.42;1.80;;;;;;;;;;8441693;28;20571;-87
2023/08/02 06:44:54;;;;;;;4.05;1.88;;;;;;;;;;8454886;28;20499;-87
2023/08/02 06:48:57;;;;;;;4.32;2.30;;;;;;;;;;8457561;28;20043;-91
2023/08/02 06:53:00;;;;;;;3.22;2.08;;;;;;;;;;8453656;28;20487;-89
2023/08/02 06:57:03;;;;;;;4.38;2.03;;;;;;;;;;8449267;28;20135;-90
2023/08/02 07:01:14;;;;;;;3.83;2.17;;;;;;;;;;8441122;28;20072;-86
2023/08/02 07:05:17;;;;;;;3.58;2.40;;;;;;;;;;8450134;28;20395;-87
2023/08/02 07:09:27;;;;;;;2.75;1.70;;;;;;;;;;8454160;28;20135;-89
2023/08/02 07:13:33;;;;;;;3.03;2.13;;;;;;;;;;8461342;28;20048;-91
2023/08/02 07:17:41;;;;;;;3.78;1.98;;;;;;;;;;8467762;28;20073;-90
2023/08/02 07:21:49;;;;;;;2.65;1.77;;;;;;;;;;8466043;28;20047;-89
2023/08/02 07:25:54;;;;;;;2.42;1.67;;;;;;;;;;8459212;28;20044;-87
2023/08/02 07:30:00;;;;;;;3.50;1.70;;;;;;;;;;8436635;28;20104;-90
2023/08/02 07:34:05;;;;;;;4.05;2.25;;;;;;;;;;8465189;28;20039;-85
2023/08/02 07:38:08;;;;;;;6.50;2.10;;;;;;;;;;8464626;28;20521;-88
2023/08/02 07:42:11;;;;;;;3.28;1.90;;;;;;;;;;8443061;28;20039;-86
2023/08/02 07:46:18;;;;;;;5.20;2.08;;;;;;;;;;8464589;28;20130;-86
2023/08/02 07:50:23;;;;;;;4.97;2.00;;;;;;;;;;8456382;28;20067;-89
2023/08/02 07:54:26;;;;;;;3.60;2.00;;;;;;;;;;8452291;28;20051;-90
2023/08/02 07:58:28;;;;;;;5.50;1.83;;;;;;;;;;8448472;28;20051;-90
2023/08/02 08:02:32;;;;;;;3.35;2.03;;;;;;;;;;8446457;28;20130;-88
2023/08/02 08:06:37;;;;;;;4.95;2.53;;;;;;;;;;8452849;28;20077;-90
2023/08/02 08:10:39;;;;;;;4.13;2.22;;;;;;;;;;8451710;28;20495;-89
2023/08/02 08:14:43;;;;;;;4.00;2.17;;;;;;;;;;8441139;28;20044;-90
2023/08/02 08:18:46;;;;;;;4.35;2.30;;;;;;;;;;8465054;28;20147;-90
2023/08/02 08:23:01;;;;;;;3.35;2.10;;;;;;;;;;8463776;28;20044;-91
2023/08/02 08:27:14;;;;;;;6.70;2.08;;;;;;;;;;8443356;28;20052;-89
2023/08/02 08:31:24;;;;;;;3.97;2.10;;;;;;;;;;8444225;28;20503;-89
2023/08/02 08:35:39;;;;;;;3.03;2.00;;;;;;;;;;8452798;28;20052;-87
2023/08/02 08:40:03;;;;;;;4.82;2.20;;;;;;;;;;8441077;28;20044;-89
2023/08/02 08:44:06;;;;;;;5.25;2.33;;;;;;;;;;8437660;28;20047;-90
2023/08/02 08:48:09;;;;;;;3.47;2.30;;;;;;;;;;8448706;28;20403;-88
2023/08/02 08:52:13;;;;;;;4.85;2.10;;;;;;;;;;8438142;28;20044;-86
2023/08/02 08:56:23;;;;;;;4.93;2.10;;;;;;;;;;8460882;28;20126;-90
2023/08/02 09:00:27;;;;;;;4.25;2.63;;;;;;;;;;8450425;28;20066;-91
2023/08/02 09:04:31;;;;;;;4.85;2.20;;;;;;;;;;8452118;28;20089;-91
2023/08/02 09:08:42;;;;;;;3.50;2.13;;;;;;;;;;8436875;28;20075;-86
2023/08/02 09:12:47;;;;;;;2.45;1.83;;;;;;;;;;8449486;28;20039;-87
2023/08/02 09:16:58;;;;;;;3.15;1.92;;;;;;;;;;8464001;28;20481;-86
2023/08/02 09:21:01;;;;;;;4.13;2.15;;;;;;;;;;8447785;28;20044;-88
2023/08/02 09:25:07;;;;;;;4.13;2.00;;;;;;;;;;8433719;28;20036;-86
2023/08/02 09:29:12;;;;;;;3.20;1.92;;;;;;;;;;8444962;28;20150;-89
2023/08/02 09:33:15;;;;;;;5.70;2.22;;;;;;;;;;8439334;28;20055;-90
2023/08/02 09:37:29;;;;;;;4.28;2.13;;;;;;;;;;8455916;28;20097;-89
2023/08/02 09:41:32;;;;;;;5.45;2.30;;;;;;;;;;8445815;28;20071;-93
2023/08/02 09:45:37;;;;;;;2.10;1.70;;;;;;;;;;8449709;28;20063;-91
2023/08/02 09:49:41;;;;;;;4.93;2.42;;;;;;;;;;8448186;28;20483;-90
2023/08/02 09:53:54;;;;;;;3.78;2.42;;;;;;;;;;8446235;28;20044;-89
2023/08/02 09:58:02;;;;;;;5.38;2.15;;;;;;;;;;8447560;28;20046;-91
2023/08/02 10:02:07;;;;;;;4.75;2.40;;;;;;;;;;8462256;28;20056;-90
2023/08/02 10:06:12;;;;;;;2.97;1.80;;;;;;;;;;8462549;28;20039;-90
2023/08/02 10:10:21;;;;;;;2.65;1.92;;;;;;;;;;8458995;28;20143;-92
2023/08/02 10:14:24;;;;;;;3.42;2.30;;;;;;;;;;8460308;28;20048;-92
2023/08/02 10:18:29;;;;;;;4.03;2.47;;;;;;;;;;8455907;28;20117;-92
2023/08/02 10:22:32;;;;;;;2.75;1.80;;;;;;;;;;8462101;28;20122;-92
2023/08/02 10:26:36;;;;;;;4.30;2.00;;;;;;;;;;8445549;28;20051;-91
2023/08/02 10:30:40;;;;;;;3.53;2.13;;;;;;;;;;8454079;28;20032;-88
2023/08/02 10:34:49;;;;;;;4.30;2.00;;;;;;;;;;8454031;28;20100;-90
2023/08/02 10:38:56;;;;;;;2.03;1.67;;;;;;;;;;8445778;28;20067;-90
2023/08/02 10:43:07;;;;;;;4.18;2.30;;;;;;;;;;8441964;28;20119;-87
2023/08/02 10:47:25;;;;;;;5.22;2.20;;;;;;;;;;8428983;28;20127;-92
2023/08/02 10:51:33;;;;;;;2.70;1.77;;;;;;;;;;8439212;28;20055;-91
2023/08/02 10:55:40;;;;;;;3.53;1.80;;;;;;;;;;8445046;28;20135;-86
2023/08/02 10:59:42;;;;;;;5.57;1.85;;;;;;;;;;8445129;28;20059;-87
2023/08/02 11:03:45;;;;;;;3.67;1.92;;;;;;;;;;8458911;28;20637;-86
2023/08/02 11:08:02;;;;;;;4.32;1.98;;;;;;;;;;8457167;28;20047;-88
2023/08/02 11:12:10;;;;;;;2.40;1.85;;;;;;;;;;8463863;28;20177;-89
2023/08/02 11:16:12;;;;;;;1.95;1.52;;;;;;;;;;8455056;28;20047;-89
2023/08/02 11:20:16;;;;;;;2.67;1.80;;;;;;;;;;8460668;28;20040;-86
2023/08/02 11:24:20;;;;;;;2.72;1.90;;;;;;;;;;8459717;28;20529;-88
2023/08/02 11:28:25;;;;;;;2.58;1.90;;;;;;;;;;8452234;28;20040;-90
2023/08/02 11:32:28;;;;;;;3.55;2.17;;;;;;;;;;8465736;28;20056;-88
2023/08/02 11:36:33;;;;;;;2.85;1.80;;;;;;;;;;8463471;28;20058;-92
2023/08/02 11:40:38;;;;;;;3.17;2.40;;;;;;;;;;8453137;28;20043;-86
2023/08/02 11:44:50;;;;;;;3.00;2.08;;;;;;;;;;8466988;28;20544;-91
2023/08/02 11:49:05;;;;;;;4.15;1.77;;;;;;;;;;8451930;28;20078;-92
2023/08/02 11:53:09;;;;;;;4.38;1.90;;;;;;;;;;8466196;28;20055;-91
2023/08/02 11:57:14;;;;;;;2.47;1.80;;;;;;;;;;8441858;28;20046;-92
2023/08/02 12:01:17;;;;;;;5.75;2.08;;;;;;;;;;8440583;28;20056;-91
2023/08/02 12:05:21;;;;;;;3.03;1.90;;;;;;;;;;8439026;28;20130;-91
2023/08/02 12:09:40;;;;;;;4.45;2.00;;;;;;;;;;8466313;28;20139;-90
2023/08/02 12:13:45;;;;;;;3.63;2.15;;;;;;;;;;8439328;28;20091;-92
2023/08/02 12:18:02;;;;;;;6.15;2.35;;;;;;;;;;8466028;28;20044;-92
2023/08/02 12:22:05;;;;;;;5.10;1.92;;;;;;;;;;8435068;28;20135;-91
2023/08/02 12:26:08;;;;;;;2.75;2.00;;;;;;;;;;8462174;28;20043;-92
2023/08/02 12:30:15;;;;;;;2.65;1.75;;;;;;;;;;8449835;28;20479;-89
2023/08/02 12:34:18;;;;;;;3.67;1.88;;;;;;;;;;8465451;28;20045;-91
2023/08/02 12:38:21;;;;;;;3.33;1.85;;;;;;;;;;8459178;28;20089;-91
2023/08/02 12:42:24;;;;;;;3.42;2.10;;;;;;;;;;8457307;28;20044;-93
2023/08/02 12:46:28;;;;;;;2.65;1.92;;;;;;;;;;8442571;28;20123;-92
2023/08/02 12:50:31;;;;;;;4.07;1.90;;;;;;;;;;8458211;28;20130;-89
2023/08/02 12:54:34;;;;;;;4.63;2.03;;;;;;;;;;8432191;28;20143;-91
2023/08/02 12:58:37;;;;;;;4.43;2.10;;;;;;;;;;8449631;28;20063;-87
2023/08/02 13:02:44;;;;;;;3.22;1.92;;;;;;;;;;8455534;28;20039;-86
2023/08/02 13:06:48;;;;;;;3.13;1.92;;;;;;;;;;8438619;28;20048;-91
2023/08/02 13:10:51;;;;;;;2.80;2.00;;;;;;;;;;8440762;28;20410;-91
2023/08/02 13:14:54;;;;;;;4.30;2.47;;;;;;;;;;8452237;28;20088;-92
2023/08/02 13:19:00;;;;;;;3.78;2.13;;;;;;;;;;8438161;28;20464;-92
2023/08/02 13:23:03;;;;;;;5.10;2.22;;;;;;;;;;8444875;28;20040;-87
2023/08/02 13:27:07;;;;;;;6.18;2.20;;;;;;;;;;8442720;28;20119;-87
2023/08/02 13:31:11;;;;;;;3.10;2.20;;;;;;;;;;8443428;28;20062;-88
2023/08/02 13:35:19;;;;;;;5.35;2.47;;;;;;;;;;8446190;28;20040;-88
2023/08/02 13:39:22;;;;;;;3.25;2.28;;;;;;;;;;8444679;28;20040;-91
2023/08/02 13:43:26;;;;;;;4.63;2.65;;;;;;;;;;8435484;28;20408;-87
2023/08/02 13:47:29;;;;;;;3.15;2.30;;;;;;;;;;8455130;28;20131;-90
2023/08/02 13:51:34;;;;;;;4.15;2.00;;;;;;;;;;8457584;28;20051;-88
2023/08/02 13:55:39;;;;;;;3.80;2.30;;;;;;;;;;8459092;28;20047;-88
2023/08/02 13:59:43;;;;;;;4.30;2.10;;;;;;;;;;8444410;28;20055;-88
2023/08/02 14:03:48;;;;;;;4.35;2.42;;;;;;;;;;8445562;28;20661;-87
2023/08/02 14:07:52;;;;;;;3.00;2.05;;;;;;;;;;8442694;28;20418;-90
2023/08/02 14:11:55;;;;;;;4.30;2.05;;;;;;;;;;8456236;28;20044;-90
2023/08/02 14:15:58;;;;;;;4.13;1.98;;;;;;;;;;8449440;28;20467;-88
2023/08/02 14:20:01;;;;;;;4.43;2.10;;;;;;;;;;8451767;28;20112;-88
2023/08/02 14:24:05;;;;;;;3.88;2.10;;;;;;;;;;8446863;28;20437;-87
2023/08/02 14:28:09;;;;;;;4.15;2.03;;;;;;;;;;8452716;28;20350;-87
2023/08/02 14:32:12;;;;;;;2.88;1.80;;;;;;;;;;8441176;28;20050;-87
2023/08/02 14:36:17;;;;;;;3.65;1.80;;;;;;;;;;8439866;28;20052;-87
2023/08/02 14:40:21;;;;;;;2.88;1.65;;;;;;;;;;8442209;28;20040;-87
2023/08/02 14:44:24;;;;;;;4.30;1.67;;;;;;;;;;8450890;28;20170;-90
2023/08/02 14:48:28;;;;;;;2.35;1.73;;;;;;;;;;8450775;28;20053;-90
2023/08/02 14:52:31;;;;;;;2.45;1.40;;;;;;;;;;8466058;28;20528;-88
2023/08/02 14:56:37;;;;;;;4.00;1.48;;;;;;;;;;8464626;28;20071;-89
2023/08/02 15:00:39;;;;;;;2.55;1.50;;;;;;;;;;8450650;28;20142;-92
2023/08/02 15:04:43;;;;;;;2.78;1.38;;;;;;;;;;8463046;28;20039;-90
2023/08/02 15:08:46;;;;;;;5.75;1.70;;;;;;;;;;8463951;28;20077;-91
2023/08/02 15:12:52;;;;;;;3.78;1.88;;;;;;;;;;8463403;28;20130;-88
2023/08/02 15:16:54;;;;;;;3.30;1.92;;;;;;;;;;8453386;28;20063;-88
2023/08/02 15:20:58;;;;;;;3.90;1.70;;;;;;;;;;8461112;28;20079;-88
2023/08/02 15:25:01;;;;;;;4.97;1.80;;;;;;;;;;8463058;28;20414;-87
2023/08/02 15:29:05;;;;;;;2.83;1.67;;;;;;;;;;8455696;28;20063;-87
2023/08/02 15:33:08;;;;;;;2.35;1.73;;;;;;;;;;8441050;28;20047;-91
2023/08/02 15:37:13;;;;;;;1.67;1.33;;;;;;;;;;8447821;28;20115;-89
2023/08/02 15:41:16;;;;;;;2.95;1.70;;;;;;;;;;8442019;28;20050;-88
2023/08/02 15:45:21;;;;;;;3.60;1.67;;;;;;;;;;8442598;28;20055;-91
2023/08/02 15:49:24;;;;;;;2.70;1.60;;;;;;;;;;8445531;28;20539;-90
2023/08/02 15:53:26;;;;;;;3.33;1.85;;;;;;;;;;8461504;28;20067;-87
2023/08/02 15:57:29;;;;;;;3.75;1.50;;;;;;;;;;8447452;28;20055;-87
2023/08/02 16:01:35;;;;;;;2.72;1.70;;;;;;;;;;8445407;28;20087;-87
2023/08/02 16:05:39;;;;;;;3.55;1.50;;;;;;;;;;8450167;28;20131;-90
2023/08/02 16:09:43;;;;;;;4.80;1.75;;;;;;;;;;8449800;28;20040;-87
2023/08/02 16:13:48;;;;;;;2.17;1.40;;;;;;;;;;8450859;28;20045;-87
2023/08/02 16:17:53;;;;;;;3.85;1.88;;;;;;;;;;8450957;28;20484;-84
2023/08/02 16:21:59;;;;;;;6.95;2.20;;;;;;;;;;8469840;28;20040;-86
2023/08/02 16:26:03;;;;;;;4.78;1.70;;;;;;;;;;8430644;28;20559;-87
2023/08/02 16:30:09;;;;;;;4.15;1.58;;;;;;;;;;8466354;28;20702;-88
2023/08/02 16:34:15;;;;;;;5.25;1.65;;;;;;;;;;8445790;28;20416;-91
2023/08/02 16:38:19;;;;;;;4.68;1.95;;;;;;;;;;8434508;28;20453;-88
2023/08/02 16:42:23;;;;;;;3.13;1.60;;;;;;;;;;8445090;28;20048;-86
2023/08/02 16:46:28;;;;;;;4.20;1.92;;;;;;;;;;8458874;28;20503;-86
2023/08/02 16:50:34;;;;;;;6.85;1.80;;;;;;;;;;8444539;28;20048;-86
2023/08/02 16:54:37;;;;;;;2.13;1.75;;;;;;;;;;8449966;28;20098;-90
2023/08/02 16:58:39;;;;;;;4.50;1.90;;;;;;;;;;8442961;28;20427;-86
2023/08/02 17:02:44;;;;;;;3.80;1.50;;;;;;;;;;8435224;28;20063;-89
2023/08/02 17:06:49;;;;;;;2.95;1.58;;;;;;;;;;8464570;28;20067;-86
2023/08/02 17:10:54;;;;;;;3.65;1.90;;;;;;;;;;8460876;28;20126;-91
2023/08/02 17:15:00;;;;;;;3.40;1.73;;;;;;;;;;8452465;28;20035;-90
2023/08/02 17:19:04;;;;;;;2.88;1.60;;;;;;;;;;8447961;28;20469;-88
2023/08/02 17:23:10;;;;;;;2.78;1.65;;;;;;;;;;8444954;28;20514;-91
2023/08/02 17:27:16;;;;;;;3.60;1.80;;;;;;;;;;8455772;28;20040;-88
2023/08/02 17:31:19;;;;;;;5.32;1.70;;;;;;;;;;8441826;28;20126;-87
2023/08/02 17:35:24;;;;;;;1.80;1.40;;;;;;;;;;8450176;28;20052;-91
2023/08/02 17:39:31;;;;;;;2.50;1.50;;;;;;;;;;8455366;28;20532;-91
2023/08/02 17:43:35;;;;;;;3.50;1.73;;;;;;;;;;8450712;28;20511;-92
2023/08/02 17:47:44;;;;;;;4.18;1.77;;;;;;;;;;8439460;28;20080;-89
2023/08/02 17:51:50;;;;;;;3.28;1.63;;;;;;;;;;8444379;28;20047;-90
2023/08/02 17:56:04;;;;;;;4.57;1.63;;;;;;;;;;8446592;28;20063;-89
2023/08/02 18:00:10;;;;;;;4.40;1.77;;;;;;;;;;8446681;28;20488;-90
2023/08/02 18:04:16;;;;;;;3.63;1.60;;;;;;;;;;8445648;28;20051;-91
2023/08/02 18:08:19;;;;;;;3.88;1.77;;;;;;;;;;8447948;28;20058;-89
2023/08/02 18:12:25;;;;;;;5.07;2.20;;;;;;;;;;8460094;28;20039;-87
2023/08/02 18:16:29;;;;;;;3.97;2.40;;;;;;;;;;8448334;28;20051;-86
2023/08/02 18:20:34;;;;;;;9.00;1.90;;;;;;;;;;8467243;28;20078;-86
2023/08/02 18:24:38;;;;;;;3.67;1.88;;;;;;;;;;8459308;28;20071;-90
2023/08/02 18:28:44;;;;;;;7.38;1.80;;;;;;;;;;8449951;28;20470;-89
2023/08/02 18:32:48;;;;;;;2.85;1.92;;;;;;;;;;8445588;28;20549;-87
2023/08/02 18:36:52;;;;;;;3.45;2.00;;;;;;;;;;8461043;28;20089;-89
2023/08/02 18:40:56;;;;;;;3.75;2.15;;;;;;;;;;8467878;28;20040;-91
2023/08/02 18:45:01;;;;;;;5.18;2.05;;;;;;;;;;8464434;28;20046;-89
2023/08/02 18:49:08;;;;;;;3.88;2.20;;;;;;;;;;8452758;28;20046;-89
2023/08/02 18:53:13;;;;;;;4.00;2.40;;;;;;;;;;8454672;28;20164;-87
2023/08/02 18:57:18;;;;;;;9.70;4.57;;;;;;;;;;8450627;28;20089;-88
2023/08/02 19:01:23;;;;;;;15.18;7.57;;;;;;;;;;8449185;28;20063;-92
2023/08/02 19:05:28;;;;;;;25.08;10.55;;;;;;;;;;8468564;27;20134;-89
2023/08/02 19:09:33;;;;;;;20.67;9.50;;;;;;;;;;8468056;28;20151;-93
2023/08/02 19:13:36;;;;;;;33.53;15.77;;;;;;;;;;8466560;28;20048;-91
2023/08/02 19:17:45;;;;;;;35.50;16.52;;;;;;;;;;8444388;28;20385;-90
2023/08/02 19:21:51;;;;;;;42.95;15.95;;;;;;;;;;8442353;28;20043;-87
2023/08/02 19:25:56;;;;;;;16.27;7.03;;;;;;;;;;8453840;28;20138;-88
2023/08/02 19:30:05;;;;;;;9.48;4.30;;;;;;;;;;8434651;28;20025;-86
2023/08/02 19:34:11;;;;;;;8.82;5.75;;;;;;;;;;8446543;28;20043;-86
2023/08/02 19:38:19;;;;;;;7.22;3.88;;;;;;;;;;8453801;28;20472;-89
2023/08/02 19:42:23;;;;;;;10.23;4.82;;;;;;;;;;8440263;28;20048;-86
2023/08/02 19:46:27;;;;;;;9.57;5.30;;;;;;;;;;8447382;28;20448;-85
2023/08/02 19:50:34;;;;;;;8.93;3.58;;;;;;;;;;8461633;28;20047;-86
2023/08/02 19:54:40;;;;;;;5.70;3.00;;;;;;;;;;8446958;28;20448;-92
2023/08/02 19:58:44;;;;;;;6.40;3.85;;;;;;;;;;8434980;28;20127;-92
2023/08/02 20:02:47;;;;;;;4.72;2.97;;;;;;;;;;8460340;28;20052;-87
2023/08/02 20:06:53;;;;;;;4.90;2.50;;;;;;;;;;8446835;28;20047;-86
2023/08/02 20:10:59;;;;;;;5.03;2.25;;;;;;;;;;8454065;28;20035;-87
2023/08/02 20:15:01;;;;;;;4.50;2.53;;;;;;;;;;8451391;28;20080;-88
2023/08/02 20:19:05;;;;;;;5.15;2.47;;;;;;;;;;8432630;28;20494;-86
2023/08/02 20:23:12;;;;;;;5.50;2.40;;;;;;;;;;8460011;28;20067;-89
2023/08/02 20:27:16;;;;;;;6.60;2.40;;;;;;;;;;8454416;28;20083;-86
2023/08/02 20:31:22;;;;;;;6.75;3.15;;;;;;;;;;8452705;28;20066;-93
2023/08/02 20:35:24;;;;;;;5.88;2.45;;;;;;;;;;8443606;28;20086;-89
2023/08/02 20:39:29;;;;;;;6.10;2.70;;;;;;;;;;8433817;28;20153;-86
2023/08/02 20:43:37;;;;;;;9.88;3.45;;;;;;;;;;8442689;28;20044;-93
2023/08/02 20:47:40;;;;;;;11.73;5.25;;;;;;;;;;8445570;28;20095;-88
2023/08/02 20:51:45;;;;;;;8.55;4.68;;;;;;;;;;8455670;28;20040;-88
2023/08/02 20:55:50;;;;;;;11.13;4.50;;;;;;;;;;8464761;28;20131;-85
2023/08/02 20:59:53;;;;;;;11.93;6.50;;;;;;;;;;8464854;28;20468;-86
2023/08/02 21:04:00;;;;;;;28.63;13.00;;;;;;;;;;8464739;28;20057;-86
2023/08/02 21:08:05;;;;;;;161.05;72.70;;;;;;;;;;8454634;28;20064;-87
2023/08/02 21:12:11;;;;;;;105.05;46.80;;;;;;;;;;8462271;28;20471;-86
2023/08/02 21:16:15;;;;;;;99.57;46.50;;;;;;;;;;8453524;28;20044;-86
2023/08/02 21:20:41;;;;;;;174.10;90.82;;;;;;;;;;8449442;28;20139;-90
2023/08/02 21:24:46;;;;;;;143.90;76.75;;;;;;;;;;8450737;28;20116;-88
2023/08/02 21:28:51;;;;;;;97.05;52.05;;;;;;;;;;8452731;28;20088;-89
2023/08/02 21:32:54;;;;;;;17.08;10.18;;;;;;;;;;8445929;28;20476;-86
2023/08/02 21:36:56;;;;;;;24.33;14.82;;;;;;;;;;8464030;28;20040;-90
2023/08/02 21:41:01;;;;;;;13.20;7.93;;;;;;;;;;8449817;28;20127;-86
2023/08/02 21:45:07;;;;;;;8.85;5.00;;;;;;;;;;8464465;28;20039;-87
2023/08/02 21:49:12;;;;;;;8.00;3.80;;;;;;;;;;8463571;28;20119;-86
2023/08/02 21:53:20;;;;;;;7.18;3.65;;;;;;;;;;8463261;28;20051;-85
2023/08/02 21:57:22;;;;;;;5.72;3.40;;;;;;;;;;8449916;28;20044;-86
2023/08/02 22:01:28;;;;;;;7.90;4.47;;;;;;;;;;8463587;28;20055;-85
2023/08/02 22:05:32;;;;;;;12.55;7.20;;;;;;;;;;8463508;28;20080;-86
2023/08/02 22:09:35;;;;;;;12.68;6.38;;;;;;;;;;8463313;28;20078;-86
2023/08/02 22:13:38;;;;;;;9.68;4.78;;;;;;;;;;8460508;28;20082;-86
2023/08/02 22:17:42;;;;;;;8.40;3.60;;;;;;;;;;8443319;28;20051;-86
2023/08/02 22:21:45;;;;;;;6.28;3.03;;;;;;;;;;8458509;28;20047;-87
2023/08/02 22:25:48;;;;;;;24.23;12.68;;;;;;;;;;8453026;28;20055;-90
2023/08/02 22:29:51;;;;;;;24.70;11.80;;;;;;;;;;8432524;28;20039;-86
2023/08/02 22:33:55;;;;;;;13.15;5.43;;;;;;;;;;8462854;28;20100;-86
2023/08/02 22:37:58;;;;;;;13.40;4.65;;;;;;;;;;8446260;28;20050;-88
2023/08/02 22:42:02;;;;;;;11.77;5.45;;;;;;;;;;8439018;28;20476;-86
2023/08/02 22:46:05;;;;;;;14.13;5.95;;;;;;;;;;8449436;28;20075;-90
2023/08/02 22:50:10;;;;;;;9.98;4.88;;;;;;;;;;8452520;28;20492;-86
2023/08/02 22:54:13;;;;;;;9.80;3.55;;;;;;;;;;8446223;28;20063;-86
2023/08/02 22:58:16;;;;;;;7.00;2.97;;;;;;;;;;8438777;28;20508;-87
2023/08/02 23:02:19;;;;;;;4.97;2.60;;;;;;;;;;8445256;28;20051;-86
2023/08/02 23:06:25;;;;;;;8.50;2.67;;;;;;;;;;8456142;28;20117;-86
2023/08/02 23:10:40;;;;;;;4.78;2.72;;;;;;;;;;8452801;28;20491;-87
2023/08/02 23:14:43;;;;;;;7.03;2.78;;;;;;;;;;8467583;28;20112;-86
2023/08/02 23:18:48;;;;;;;6.85;2.70;;;;;;;;;;8454960;28;20047;-88
2023/08/02 23:22:53;;;;;;;7.47;3.45;;;;;;;;;;8455856;28;20059;-86
2023/08/02 23:26:56;;;;;;;6.07;3.00;;;;;;;;;;8447935;28;20050;-86
2023/08/02 23:31:01;;;;;;;5.45;2.67;;;;;;;;;;8460983;28;20044;-88
2023/08/02 23:35:04;;;;;;;5.05;2.40;;;;;;;;;;8467948;28;20550;-86
2023/08/02 23:39:08;;;;;;;6.15;2.58;;;;;;;;;;8468393;28;20489;-90
2023/08/02 23:43:12;;;;;;;4.65;2.50;;;;;;;;;;8466433;28;20043;-87
2023/08/02 23:47:14;;;;;;;5.30;2.60;;;;;;;;;;8454324;28;20048;-86
2023/08/02 23:51:17;;;;;;;3.88;2.50;;;;;;;;;;8433726;28;20450;-86
2023/08/02 23:55:21;;;;;;;4.60;2.70;;;;;;;;;;8450106;28;20044;-92
2023/08/02 23:59:24;;;;;;;4.20;2.17;;;;;;;;;;8460822;28;20088;-89
